sensor_id;sensor_type;location;lat;lon;timestamp;P1;durP1;ratioP1;P2;durP2;ratioP2
20832;SDS011;56075;51.264;7.150;2023-08-21T00:00:16;8.00;;;2.53;;
20832;SDS011;56075;51.264;7.150;2023-08-21T00:02:47;4.68;;;2.50;;
20832;SDS011;56075;51.264;7.150;2023-08-21T00:05:19;6.25;;;2.45;;
20832;SDS011;56075;51.264;7.150;2023-08-21T00:07:50;6.70;;;2.42;;
20832;SDS011;56075;51.264;7.150;2023-08-21T00:10:21;4.85;;;2.67;;
20832;SDS011;56075;51.264;7.150;2023-08-21T00:12:52;7.13;;;2.30;;
20832;SDS011;56075;51.264;7.150;2023-08-21T00:15:23;8.60;;;2.28;;
20832;SDS011;56075;51.264;7.150;2023-08-21T00:17:55;4.38;;;2.35;;
20832;SDS011;56075;51.264;7.150;2023-08-21T00:20:26;9.35;;;2.60;;
20832;SDS011;56075;51.264;7.150;2023-08-21T00:22:57;8.40;;;2.33;;
20832;SDS011;56075;51.264;7.150;2023-08-21T00:25:28;9.07;;;2.53;;
20832;SDS011;56075;51.264;7.150;2023-08-21T00:27:59;7.28;;;2.30;;
20832;SDS011;56075;51.264;7.150;2023-08-21T00:30:31;7.53;;;2.38;;
20832;SDS011;56075;51.264;7.150;2023-08-21T00:33:02;6.75;;;2.08;;
20832;SDS011;56075;51.264;7.150;2023-08-21T00:35:33;7.45;;;2.13;;
20832;SDS011;56075;51.264;7.150;2023-08-21T00:38:05;6.10;;;2.40;;
20832;SDS011;56075;51.264;7.150;2023-08-21T00:40:36;5.18;;;2.50;;
20832;SDS011;56075;51.264;7.150;2023-08-21T00:43:07;7.93;;;2.50;;
20832;SDS011;56075;51.264;7.150;2023-08-21T00:45:38;4.85;;;2.03;;
20832;SDS011;56075;51.264;7.150;2023-08-21T00:48:13;9.45;;;2.78;;
20832;SDS011;56075;51.264;7.150;2023-08-21T00:50:45;8.93;;;3.10;;
20832;SDS011;56075;51.264;7.150;2023-08-21T00:53:17;9.85;;;3.00;;
20832;SDS011;56075;51.264;7.150;2023-08-21T00:55:48;4.03;;;2.20;;
20832;SDS011;56075;51.264;7.150;2023-08-21T00:58:20;4.85;;;2.35;;
20832;SDS011;56075;51.264;7.150;2023-08-21T01:00:51;7.43;;;3.03;;
20832;SDS011;56075;51.264;7.150;2023-08-21T01:03:23;5.43;;;3.10;;
20832;SDS011;56075;51.264;7.150;2023-08-21T01:05:55;11.30;;;3.85;;
20832;SDS011;56075;51.264;7.150;2023-08-21T01:11:14;9.30;;;3.70;;
20832;SDS011;56075;51.264;7.150;2023-08-21T01:14:15;9.63;;;3.78;;
20832;SDS011;56075;51.264;7.150;2023-08-21T01:17:23;8.77;;;3.75;;
20832;SDS011;56075;51.264;7.150;2023-08-21T01:19:55;6.45;;;3.40;;
20832;SDS011;56075;51.264;7.150;2023-08-21T01:22:27;8.82;;;3.50;;
20832;SDS011;56075;51.264;7.150;2023-08-21T01:25:06;7.47;;;3.15;;
20832;SDS011;56075;51.264;7.150;2023-08-21T01:27:48;7.13;;;3.17;;
20832;SDS011;56075;51.264;7.150;2023-08-21T01:30:21;9.13;;;3.40;;
20832;SDS011;56075;51.264;7.150;2023-08-21T01:35:27;6.25;;;3.28;;
20832;SDS011;56075;51.264;7.150;2023-08-21T01:38:02;8.55;;;3.42;;
20832;SDS011;56075;51.264;7.150;2023-08-21T01:40:33;7.65;;;3.55;;
20832;SDS011;56075;51.264;7.150;2023-08-21T01:43:04;7.82;;;3.35;;
20832;SDS011;56075;51.264;7.150;2023-08-21T01:45:35;7.00;;;3.28;;
20832;SDS011;56075;51.264;7.150;2023-08-21T01:48:06;8.55;;;3.25;;
20832;SDS011;56075;51.264;7.150;2023-08-21T01:50:38;6.18;;;3.08;;
20832;SDS011;56075;51.264;7.150;2023-08-21T01:53:09;7.60;;;3.40;;
20832;SDS011;56075;51.264;7.150;2023-08-21T01:55:40;6.18;;;2.80;;
20832;SDS011;56075;51.264;7.150;2023-08-21T01:58:11;5.63;;;3.03;;
20832;SDS011;56075;51.264;7.150;2023-08-21T02:00:45;10.43;;;3.58;;
20832;SDS011;56075;51.264;7.150;2023-08-21T02:03:19;7.22;;;3.00;;
20832;SDS011;56075;51.264;7.150;2023-08-21T02:05:50;7.70;;;3.13;;
20832;SDS011;56075;51.264;7.150;2023-08-21T02:08:21;6.53;;;3.05;;
20832;SDS011;56075;51.264;7.150;2023-08-21T02:10:52;9.25;;;3.40;;
20832;SDS011;56075;51.264;7.150;2023-08-21T02:13:23;10.10;;;3.60;;
20832;SDS011;56075;51.264;7.150;2023-08-21T02:15:55;7.38;;;3.55;;
20832;SDS011;56075;51.264;7.150;2023-08-21T02:18:26;7.78;;;3.50;;
20832;SDS011;56075;51.264;7.150;2023-08-21T02:20:57;10.00;;;3.70;;
20832;SDS011;56075;51.264;7.150;2023-08-21T02:23:28;10.30;;;3.65;;
20832;SDS011;56075;51.264;7.150;2023-08-21T02:26:00;8.07;;;3.28;;
20832;SDS011;56075;51.264;7.150;2023-08-21T02:28:31;11.48;;;3.33;;
20832;SDS011;56075;51.264;7.150;2023-08-21T02:31:03;9.57;;;3.80;;
20832;SDS011;56075;51.264;7.150;2023-08-21T02:33:38;10.27;;;3.65;;
20832;SDS011;56075;51.264;7.150;2023-08-21T02:36:09;9.25;;;3.90;;
20832;SDS011;56075;51.264;7.150;2023-08-21T02:38:40;13.45;;;4.00;;
20832;SDS011;56075;51.264;7.150;2023-08-21T02:41:12;10.05;;;4.00;;
20832;SDS011;56075;51.264;7.150;2023-08-21T02:43:43;8.50;;;3.42;;
20832;SDS011;56075;51.264;7.150;2023-08-21T02:46:14;9.55;;;3.30;;
20832;SDS011;56075;51.264;7.150;2023-08-21T02:48:47;8.13;;;3.65;;
20832;SDS011;56075;51.264;7.150;2023-08-21T02:51:19;10.68;;;3.47;;
20832;SDS011;56075;51.264;7.150;2023-08-21T02:53:50;11.45;;;3.58;;
20832;SDS011;56075;51.264;7.150;2023-08-21T02:56:21;7.97;;;3.45;;
20832;SDS011;56075;51.264;7.150;2023-08-21T02:58:52;8.25;;;3.67;;
20832;SDS011;56075;51.264;7.150;2023-08-21T03:01:23;9.15;;;3.63;;
20832;SDS011;56075;51.264;7.150;2023-08-21T03:03:54;8.95;;;3.78;;
20832;SDS011;56075;51.264;7.150;2023-08-21T03:06:25;12.32;;;3.80;;
20832;SDS011;56075;51.264;7.150;2023-08-21T03:08:56;11.05;;;3.65;;
20832;SDS011;56075;51.264;7.150;2023-08-21T03:11:27;11.15;;;3.60;;
20832;SDS011;56075;51.264;7.150;2023-08-21T03:13:58;7.75;;;3.17;;
20832;SDS011;56075;51.264;7.150;2023-08-21T03:16:30;9.50;;;3.38;;
20832;SDS011;56075;51.264;7.150;2023-08-21T03:19:01;8.45;;;3.10;;
20832;SDS011;56075;51.264;7.150;2023-08-21T03:21:34;13.85;;;3.83;;
20832;SDS011;56075;51.264;7.150;2023-08-21T03:24:05;7.20;;;3.95;;
20832;SDS011;56075;51.264;7.150;2023-08-21T03:26:38;9.07;;;3.72;;
20832;SDS011;56075;51.264;7.150;2023-08-21T03:29:09;7.32;;;3.53;;
20832;SDS011;56075;51.264;7.150;2023-08-21T03:31:40;13.80;;;3.72;;
20832;SDS011;56075;51.264;7.150;2023-08-21T03:34:12;7.22;;;3.13;;
20832;SDS011;56075;51.264;7.150;2023-08-21T03:36:44;8.80;;;3.15;;
20832;SDS011;56075;51.264;7.150;2023-08-21T03:39:15;8.18;;;3.30;;
20832;SDS011;56075;51.264;7.150;2023-08-21T03:41:49;8.68;;;3.38;;
20832;SDS011;56075;51.264;7.150;2023-08-21T03:44:21;8.60;;;3.28;;
20832;SDS011;56075;51.264;7.150;2023-08-21T03:46:52;10.23;;;3.30;;
20832;SDS011;56075;51.264;7.150;2023-08-21T03:49:23;5.65;;;3.03;;
20832;SDS011;56075;51.264;7.150;2023-08-21T03:51:54;6.22;;;3.00;;
20832;SDS011;56075;51.264;7.150;2023-08-21T03:54:25;8.00;;;3.30;;
20832;SDS011;56075;51.264;7.150;2023-08-21T03:56:56;8.50;;;3.22;;
20832;SDS011;56075;51.264;7.150;2023-08-21T03:59:27;8.25;;;3.30;;
20832;SDS011;56075;51.264;7.150;2023-08-21T04:01:58;8.57;;;3.30;;
20832;SDS011;56075;51.264;7.150;2023-08-21T04:04:30;10.23;;;3.80;;
20832;SDS011;56075;51.264;7.150;2023-08-21T04:07:01;11.95;;;3.70;;
20832;SDS011;56075;51.264;7.150;2023-08-21T04:09:32;11.25;;;3.83;;
20832;SDS011;56075;51.264;7.150;2023-08-21T04:12:03;10.43;;;3.80;;
20832;SDS011;56075;51.264;7.150;2023-08-21T04:14:34;9.10;;;3.80;;
20832;SDS011;56075;51.264;7.150;2023-08-21T04:17:06;11.32;;;4.03;;
20832;SDS011;56075;51.264;7.150;2023-08-21T04:19:37;8.73;;;3.50;;
20832;SDS011;56075;51.264;7.150;2023-08-21T04:22:11;10.38;;;3.58;;
20832;SDS011;56075;51.264;7.150;2023-08-21T04:24:42;8.73;;;3.65;;
20832;SDS011;56075;51.264;7.150;2023-08-21T04:27:13;9.77;;;3.58;;
20832;SDS011;56075;51.264;7.150;2023-08-21T04:29:45;8.50;;;3.65;;
20832;SDS011;56075;51.264;7.150;2023-08-21T04:32:16;7.38;;;3.65;;
20832;SDS011;56075;51.264;7.150;2023-08-21T04:34:49;9.18;;;3.38;;
20832;SDS011;56075;51.264;7.150;2023-08-21T04:37:20;9.68;;;3.72;;
20832;SDS011;56075;51.264;7.150;2023-08-21T04:39:52;8.52;;;3.72;;
20832;SDS011;56075;51.264;7.150;2023-08-21T04:42:24;9.95;;;4.10;;
20832;SDS011;56075;51.264;7.150;2023-08-21T04:44:55;9.73;;;3.95;;
20832;SDS011;56075;51.264;7.150;2023-08-21T04:47:26;8.05;;;4.63;;
20832;SDS011;56075;51.264;7.150;2023-08-21T04:50:00;10.35;;;5.00;;
20832;SDS011;56075;51.264;7.150;2023-08-21T04:52:34;14.75;;;4.53;;
20832;SDS011;56075;51.264;7.150;2023-08-21T04:55:05;10.38;;;4.88;;
20832;SDS011;56075;51.264;7.150;2023-08-21T04:57:38;11.80;;;4.88;;
20832;SDS011;56075;51.264;7.150;2023-08-21T05:00:12;14.18;;;4.80;;
20832;SDS011;56075;51.264;7.150;2023-08-21T05:02:46;12.52;;;4.78;;
20832;SDS011;56075;51.264;7.150;2023-08-21T05:05:17;14.55;;;5.05;;
20832;SDS011;56075;51.264;7.150;2023-08-21T05:07:48;10.68;;;5.00;;
20832;SDS011;56075;51.264;7.150;2023-08-21T05:10:20;12.27;;;4.85;;
20832;SDS011;56075;51.264;7.150;2023-08-21T05:12:52;10.90;;;4.65;;
20832;SDS011;56075;51.264;7.150;2023-08-21T05:15:23;16.15;;;5.50;;
20832;SDS011;56075;51.264;7.150;2023-08-21T05:17:55;15.40;;;5.30;;
20832;SDS011;56075;51.264;7.150;2023-08-21T05:20:27;13.57;;;4.45;;
20832;SDS011;56075;51.264;7.150;2023-08-21T05:22:58;10.63;;;4.85;;
20832;SDS011;56075;51.264;7.150;2023-08-21T05:25:29;16.08;;;5.65;;
20832;SDS011;56075;51.264;7.150;2023-08-21T05:28:03;14.32;;;4.50;;
20832;SDS011;56075;51.264;7.150;2023-08-21T05:30:35;11.48;;;4.68;;
20832;SDS011;56075;51.264;7.150;2023-08-21T05:33:07;9.07;;;4.40;;
20832;SDS011;56075;51.264;7.150;2023-08-21T05:35:39;13.30;;;4.93;;
20832;SDS011;56075;51.264;7.150;2023-08-21T05:38:12;15.13;;;5.03;;
20832;SDS011;56075;51.264;7.150;2023-08-21T05:40:43;11.25;;;4.55;;
20832;SDS011;56075;51.264;7.150;2023-08-21T05:43:16;8.45;;;4.70;;
20832;SDS011;56075;51.264;7.150;2023-08-21T05:45:47;13.35;;;5.03;;
20832;SDS011;56075;51.264;7.150;2023-08-21T05:48:19;10.80;;;4.90;;
20832;SDS011;56075;51.264;7.150;2023-08-21T05:50:50;14.77;;;4.97;;
20832;SDS011;56075;51.264;7.150;2023-08-21T05:53:22;8.13;;;4.97;;
20832;SDS011;56075;51.264;7.150;2023-08-21T05:55:54;9.20;;;4.05;;
20832;SDS011;56075;51.264;7.150;2023-08-21T05:58:25;14.80;;;5.05;;
20832;SDS011;56075;51.264;7.150;2023-08-21T06:01:00;14.75;;;5.30;;
20832;SDS011;56075;51.264;7.150;2023-08-21T06:03:32;16.20;;;5.40;;
20832;SDS011;56075;51.264;7.150;2023-08-21T06:06:14;10.20;;;4.88;;
20832;SDS011;56075;51.264;7.150;2023-08-21T06:08:46;13.18;;;5.05;;
20832;SDS011;56075;51.264;7.150;2023-08-21T06:11:18;14.85;;;4.90;;
20832;SDS011;56075;51.264;7.150;2023-08-21T06:13:50;19.80;;;5.40;;
20832;SDS011;56075;51.264;7.150;2023-08-21T06:16:21;9.85;;;4.70;;
20832;SDS011;56075;51.264;7.150;2023-08-21T06:18:53;14.25;;;4.78;;
20832;SDS011;56075;51.264;7.150;2023-08-21T06:21:25;13.55;;;4.70;;
20832;SDS011;56075;51.264;7.150;2023-08-21T06:23:56;15.95;;;4.95;;
20832;SDS011;56075;51.264;7.150;2023-08-21T06:26:27;12.75;;;5.00;;
20832;SDS011;56075;51.264;7.150;2023-08-21T06:28:58;10.52;;;5.18;;
20832;SDS011;56075;51.264;7.150;2023-08-21T06:31:29;13.15;;;5.15;;
20832;SDS011;56075;51.264;7.150;2023-08-21T06:34:00;12.48;;;4.85;;
20832;SDS011;56075;51.264;7.150;2023-08-21T06:36:32;13.30;;;5.05;;
20832;SDS011;56075;51.264;7.150;2023-08-21T06:39:05;9.98;;;4.70;;
20832;SDS011;56075;51.264;7.150;2023-08-21T06:41:36;16.27;;;5.00;;
20832;SDS011;56075;51.264;7.150;2023-08-21T06:44:08;15.80;;;5.32;;
20832;SDS011;56075;51.264;7.150;2023-08-21T06:46:39;16.55;;;5.03;;
20832;SDS011;56075;51.264;7.150;2023-08-21T06:49:11;12.73;;;5.00;;
20832;SDS011;56075;51.264;7.150;2023-08-21T06:51:42;15.98;;;5.10;;
20832;SDS011;56075;51.264;7.150;2023-08-21T06:54:13;11.48;;;4.75;;
20832;SDS011;56075;51.264;7.150;2023-08-21T06:56:44;16.13;;;5.15;;
20832;SDS011;56075;51.264;7.150;2023-08-21T06:59:15;12.30;;;4.80;;
20832;SDS011;56075;51.264;7.150;2023-08-21T07:01:46;12.88;;;4.95;;
20832;SDS011;56075;51.264;7.150;2023-08-21T07:04:18;12.90;;;4.43;;
20832;SDS011;56075;51.264;7.150;2023-08-21T07:06:49;17.60;;;5.15;;
20832;SDS011;56075;51.264;7.150;2023-08-21T07:09:20;13.13;;;5.00;;
20832;SDS011;56075;51.264;7.150;2023-08-21T07:11:51;14.15;;;4.78;;
20832;SDS011;56075;51.264;7.150;2023-08-21T07:14:23;14.07;;;4.72;;
20832;SDS011;56075;51.264;7.150;2023-08-21T07:16:55;10.98;;;4.82;;
20832;SDS011;56075;51.264;7.150;2023-08-21T07:19:26;10.60;;;4.60;;
20832;SDS011;56075;51.264;7.150;2023-08-21T07:21:57;11.13;;;4.25;;
20832;SDS011;56075;51.264;7.150;2023-08-21T07:24:29;11.38;;;5.00;;
20832;SDS011;56075;51.264;7.150;2023-08-21T07:27:00;7.50;;;4.60;;
20832;SDS011;56075;51.264;7.150;2023-08-21T07:29:31;9.57;;;4.30;;
20832;SDS011;56075;51.264;7.150;2023-08-21T07:32:02;11.23;;;4.70;;
20832;SDS011;56075;51.264;7.150;2023-08-21T07:34:33;10.20;;;4.28;;
20832;SDS011;56075;51.264;7.150;2023-08-21T07:37:04;10.07;;;4.60;;
20832;SDS011;56075;51.264;7.150;2023-08-21T07:39:39;12.02;;;4.43;;
20832;SDS011;56075;51.264;7.150;2023-08-21T07:42:13;12.02;;;4.60;;
20832;SDS011;56075;51.264;7.150;2023-08-21T07:44:44;12.98;;;4.80;;
20832;SDS011;56075;51.264;7.150;2023-08-21T07:47:16;12.10;;;4.65;;
20832;SDS011;56075;51.264;7.150;2023-08-21T07:49:48;10.35;;;4.90;;
20832;SDS011;56075;51.264;7.150;2023-08-21T07:52:20;27.75;;;5.20;;
20832;SDS011;56075;51.264;7.150;2023-08-21T07:54:51;18.33;;;4.82;;
20832;SDS011;56075;51.264;7.150;2023-08-21T07:57:23;12.60;;;4.72;;
20832;SDS011;56075;51.264;7.150;2023-08-21T07:59:55;14.90;;;4.93;;
20832;SDS011;56075;51.264;7.150;2023-08-21T08:02:26;12.70;;;5.05;;
20832;SDS011;56075;51.264;7.150;2023-08-21T08:04:57;10.15;;;4.82;;
20832;SDS011;56075;51.264;7.150;2023-08-21T08:07:28;13.32;;;5.28;;
20832;SDS011;56075;51.264;7.150;2023-08-21T08:10:00;12.32;;;4.97;;
20832;SDS011;56075;51.264;7.150;2023-08-21T08:12:31;11.43;;;5.03;;
20832;SDS011;56075;51.264;7.150;2023-08-21T08:15:03;11.85;;;5.18;;
20832;SDS011;56075;51.264;7.150;2023-08-21T08:17:35;16.27;;;5.38;;
20832;SDS011;56075;51.264;7.150;2023-08-21T08:20:07;7.82;;;4.80;;
20832;SDS011;56075;51.264;7.150;2023-08-21T08:22:41;15.73;;;6.13;;
20832;SDS011;56075;51.264;7.150;2023-08-21T08:25:12;14.52;;;6.50;;
20832;SDS011;56075;51.264;7.150;2023-08-21T08:27:44;12.93;;;6.03;;
20832;SDS011;56075;51.264;7.150;2023-08-21T08:30:15;11.60;;;5.70;;
20832;SDS011;56075;51.264;7.150;2023-08-21T08:32:46;12.88;;;7.07;;
20832;SDS011;56075;51.264;7.150;2023-08-21T08:35:17;10.25;;;6.78;;
20832;SDS011;56075;51.264;7.150;2023-08-21T08:37:49;12.20;;;6.47;;
20832;SDS011;56075;51.264;7.150;2023-08-21T08:40:20;12.00;;;6.78;;
20832;SDS011;56075;51.264;7.150;2023-08-21T08:42:52;11.63;;;6.53;;
20832;SDS011;56075;51.264;7.150;2023-08-21T08:45:27;12.57;;;6.28;;
20832;SDS011;56075;51.264;7.150;2023-08-21T08:48:03;13.52;;;6.85;;
20832;SDS011;56075;51.264;7.150;2023-08-21T08:50:35;13.85;;;7.95;;
20832;SDS011;56075;51.264;7.150;2023-08-21T08:53:08;17.30;;;7.68;;
20832;SDS011;56075;51.264;7.150;2023-08-21T08:55:40;16.08;;;8.48;;
20832;SDS011;56075;51.264;7.150;2023-08-21T08:58:11;17.15;;;7.35;;
20832;SDS011;56075;51.264;7.150;2023-08-21T09:00:43;15.75;;;7.25;;
20832;SDS011;56075;51.264;7.150;2023-08-21T09:03:14;17.55;;;6.97;;
20832;SDS011;56075;51.264;7.150;2023-08-21T09:05:46;12.57;;;7.07;;
20832;SDS011;56075;51.264;7.150;2023-08-21T09:08:18;13.20;;;7.50;;
20832;SDS011;56075;51.264;7.150;2023-08-21T09:10:50;30.83;;;8.60;;
20832;SDS011;56075;51.264;7.150;2023-08-21T09:13:21;30.85;;;7.95;;
20832;SDS011;56075;51.264;7.150;2023-08-21T09:15:53;11.52;;;7.30;;
20832;SDS011;56075;51.264;7.150;2023-08-21T09:18:25;13.88;;;6.38;;
20832;SDS011;56075;51.264;7.150;2023-08-21T09:20:56;11.75;;;5.95;;
20832;SDS011;56075;51.264;7.150;2023-08-21T09:23:27;12.45;;;5.90;;
20832;SDS011;56075;51.264;7.150;2023-08-21T09:25:59;11.25;;;6.18;;
20832;SDS011;56075;51.264;7.150;2023-08-21T09:28:32;9.35;;;5.80;;
20832;SDS011;56075;51.264;7.150;2023-08-21T09:31:03;10.43;;;5.30;;
20832;SDS011;56075;51.264;7.150;2023-08-21T09:33:34;9.23;;;5.55;;
20832;SDS011;56075;51.264;7.150;2023-08-21T09:36:06;11.63;;;5.95;;
20832;SDS011;56075;51.264;7.150;2023-08-21T09:38:39;13.93;;;5.82;;
20832;SDS011;56075;51.264;7.150;2023-08-21T09:41:19;10.38;;;6.13;;
20832;SDS011;56075;51.264;7.150;2023-08-21T09:43:51;9.63;;;5.18;;
20832;SDS011;56075;51.264;7.150;2023-08-21T09:46:25;9.52;;;5.05;;
20832;SDS011;56075;51.264;7.150;2023-08-21T09:48:58;11.38;;;5.30;;
20832;SDS011;56075;51.264;7.150;2023-08-21T09:51:31;12.18;;;6.30;;
20832;SDS011;56075;51.264;7.150;2023-08-21T09:54:03;10.50;;;6.00;;
20832;SDS011;56075;51.264;7.150;2023-08-21T09:56:35;11.38;;;7.00;;
20832;SDS011;56075;51.264;7.150;2023-08-21T09:59:07;10.70;;;5.55;;
20832;SDS011;56075;51.264;7.150;2023-08-21T10:01:38;11.02;;;6.60;;
20832;SDS011;56075;51.264;7.150;2023-08-21T10:04:10;12.18;;;5.38;;
20832;SDS011;56075;51.264;7.150;2023-08-21T10:06:44;13.10;;;5.72;;
20832;SDS011;56075;51.264;7.150;2023-08-21T10:09:16;9.50;;;6.00;;
20832;SDS011;56075;51.264;7.150;2023-08-21T10:11:47;13.45;;;6.40;;
20832;SDS011;56075;51.264;7.150;2023-08-21T10:14:20;11.25;;;5.38;;
20832;SDS011;56075;51.264;7.150;2023-08-21T10:16:54;11.45;;;5.70;;
20832;SDS011;56075;51.264;7.150;2023-08-21T10:19:32;8.23;;;5.53;;
20832;SDS011;56075;51.264;7.150;2023-08-21T10:22:03;9.95;;;6.00;;
20832;SDS011;56075;51.264;7.150;2023-08-21T10:24:35;10.43;;;5.70;;
20832;SDS011;56075;51.264;7.150;2023-08-21T10:27:08;12.27;;;5.97;;
20832;SDS011;56075;51.264;7.150;2023-08-21T10:29:39;10.48;;;5.72;;
20832;SDS011;56075;51.264;7.150;2023-08-21T10:32:10;10.80;;;5.40;;
20832;SDS011;56075;51.264;7.150;2023-08-21T10:34:41;13.43;;;5.95;;
20832;SDS011;56075;51.264;7.150;2023-08-21T10:37:23;12.15;;;6.63;;
20832;SDS011;56075;51.264;7.150;2023-08-21T10:39:55;9.98;;;5.60;;
20832;SDS011;56075;51.264;7.150;2023-08-21T10:42:37;10.88;;;5.72;;
20832;SDS011;56075;51.264;7.150;2023-08-21T10:45:13;13.40;;;6.90;;
20832;SDS011;56075;51.264;7.150;2023-08-21T10:47:44;12.18;;;6.35;;
20832;SDS011;56075;51.264;7.150;2023-08-21T10:50:17;11.00;;;6.00;;
20832;SDS011;56075;51.264;7.150;2023-08-21T10:52:48;10.43;;;5.78;;
20832;SDS011;56075;51.264;7.150;2023-08-21T10:55:22;14.25;;;6.35;;
20832;SDS011;56075;51.264;7.150;2023-08-21T10:57:54;12.05;;;5.97;;
20832;SDS011;56075;51.264;7.150;2023-08-21T11:00:25;12.15;;;6.20;;
20832;SDS011;56075;51.264;7.150;2023-08-21T11:02:56;10.05;;;6.10;;
20832;SDS011;56075;51.264;7.150;2023-08-21T11:05:28;10.50;;;5.40;;
20832;SDS011;56075;51.264;7.150;2023-08-21T11:07:59;11.80;;;5.38;;
20832;SDS011;56075;51.264;7.150;2023-08-21T11:10:30;15.90;;;5.70;;
20832;SDS011;56075;51.264;7.150;2023-08-21T11:13:06;11.23;;;5.32;;
20832;SDS011;56075;51.264;7.150;2023-08-21T11:15:37;10.18;;;5.88;;
20832;SDS011;56075;51.264;7.150;2023-08-21T11:18:08;8.48;;;5.20;;
20832;SDS011;56075;51.264;7.150;2023-08-21T11:20:39;11.32;;;5.93;;
20832;SDS011;56075;51.264;7.150;2023-08-21T11:23:11;10.02;;;5.30;;
20832;SDS011;56075;51.264;7.150;2023-08-21T11:25:42;12.35;;;5.88;;
20832;SDS011;56075;51.264;7.150;2023-08-21T11:28:16;9.02;;;5.60;;
20832;SDS011;56075;51.264;7.150;2023-08-21T11:30:47;12.18;;;5.35;;
20832;SDS011;56075;51.264;7.150;2023-08-21T11:33:18;8.80;;;5.03;;
20832;SDS011;56075;51.264;7.150;2023-08-21T11:35:49;8.70;;;5.22;;
20832;SDS011;56075;51.264;7.150;2023-08-21T11:38:23;8.45;;;5.00;;
20832;SDS011;56075;51.264;7.150;2023-08-21T11:40:57;8.93;;;5.28;;
20832;SDS011;56075;51.264;7.150;2023-08-21T11:46:10;12.07;;;6.03;;
20832;SDS011;56075;51.264;7.150;2023-08-21T11:48:41;8.82;;;4.93;;
20832;SDS011;56075;51.264;7.150;2023-08-21T11:51:12;14.57;;;5.57;;
20832;SDS011;56075;51.264;7.150;2023-08-21T11:53:44;12.13;;;5.10;;
20832;SDS011;56075;51.264;7.150;2023-08-21T11:56:19;12.30;;;5.05;;
20832;SDS011;56075;51.264;7.150;2023-08-21T11:58:50;9.52;;;4.63;;
20832;SDS011;56075;51.264;7.150;2023-08-21T12:01:22;13.15;;;5.10;;
20832;SDS011;56075;51.264;7.150;2023-08-21T12:03:53;11.10;;;4.03;;
20832;SDS011;56075;51.264;7.150;2023-08-21T12:06:27;10.13;;;4.95;;
20832;SDS011;56075;51.264;7.150;2023-08-21T12:09:02;7.55;;;3.97;;
20832;SDS011;56075;51.264;7.150;2023-08-21T12:11:35;10.35;;;4.63;;
20832;SDS011;56075;51.264;7.150;2023-08-21T12:14:08;12.57;;;4.57;;
20832;SDS011;56075;51.264;7.150;2023-08-21T12:16:39;10.73;;;4.13;;
20832;SDS011;56075;51.264;7.150;2023-08-21T12:19:11;10.38;;;3.63;;
20832;SDS011;56075;51.264;7.150;2023-08-21T12:21:45;9.10;;;4.22;;
20832;SDS011;56075;51.264;7.150;2023-08-21T12:24:16;11.68;;;4.00;;
20832;SDS011;56075;51.264;7.150;2023-08-21T12:26:47;11.68;;;4.18;;
20832;SDS011;56075;51.264;7.150;2023-08-21T12:29:18;8.73;;;3.60;;
20832;SDS011;56075;51.264;7.150;2023-08-21T12:31:49;9.52;;;3.55;;
20832;SDS011;56075;51.264;7.150;2023-08-21T12:34:21;10.90;;;3.40;;
20832;SDS011;56075;51.264;7.150;2023-08-21T12:36:52;7.70;;;3.92;;
20832;SDS011;56075;51.264;7.150;2023-08-21T12:39:23;8.55;;;3.78;;
20832;SDS011;56075;51.264;7.150;2023-08-21T12:41:54;7.20;;;3.33;;
20832;SDS011;56075;51.264;7.150;2023-08-21T12:44:26;8.60;;;4.18;;
20832;SDS011;56075;51.264;7.150;2023-08-21T12:46:57;5.95;;;3.92;;
20832;SDS011;56075;51.264;7.150;2023-08-21T12:49:28;8.57;;;4.22;;
20832;SDS011;56075;51.264;7.150;2023-08-21T12:51:59;5.78;;;2.63;;
20832;SDS011;56075;51.264;7.150;2023-08-21T12:54:31;6.18;;;3.28;;
20832;SDS011;56075;51.264;7.150;2023-08-21T12:57:02;10.85;;;3.85;;
20832;SDS011;56075;51.264;7.150;2023-08-21T12:59:33;9.75;;;3.75;;
20832;SDS011;56075;51.264;7.150;2023-08-21T13:02:04;11.02;;;4.00;;
20832;SDS011;56075;51.264;7.150;2023-08-21T13:04:35;7.18;;;3.45;;
20832;SDS011;56075;51.264;7.150;2023-08-21T13:07:07;9.80;;;3.60;;
20832;SDS011;56075;51.264;7.150;2023-08-21T13:09:38;9.25;;;3.17;;
20832;SDS011;56075;51.264;7.150;2023-08-21T13:12:09;6.40;;;2.92;;
20832;SDS011;56075;51.264;7.150;2023-08-21T13:14:40;6.38;;;2.83;;
20832;SDS011;56075;51.264;7.150;2023-08-21T13:17:12;8.52;;;2.90;;
20832;SDS011;56075;51.264;7.150;2023-08-21T13:19:43;9.15;;;3.28;;
20832;SDS011;56075;51.264;7.150;2023-08-21T13:22:16;6.60;;;3.10;;
20832;SDS011;56075;51.264;7.150;2023-08-21T13:24:47;8.27;;;3.17;;
20832;SDS011;56075;51.264;7.150;2023-08-21T13:27:18;10.15;;;2.75;;
20832;SDS011;56075;51.264;7.150;2023-08-21T13:29:50;8.85;;;3.88;;
20832;SDS011;56075;51.264;7.150;2023-08-21T13:32:21;10.88;;;3.10;;
20832;SDS011;56075;51.264;7.150;2023-08-21T13:34:52;6.35;;;2.70;;
20832;SDS011;56075;51.264;7.150;2023-08-21T13:37:23;10.93;;;3.30;;
20832;SDS011;56075;51.264;7.150;2023-08-21T13:39:54;11.40;;;2.95;;
20832;SDS011;56075;51.264;7.150;2023-08-21T13:42:29;8.23;;;2.75;;
20832;SDS011;56075;51.264;7.150;2023-08-21T13:45:02;9.45;;;2.58;;
20832;SDS011;56075;51.264;7.150;2023-08-21T13:47:33;6.78;;;2.53;;
20832;SDS011;56075;51.264;7.150;2023-08-21T13:50:05;7.97;;;2.78;;
20832;SDS011;56075;51.264;7.150;2023-08-21T13:52:37;5.03;;;2.10;;
20832;SDS011;56075;51.264;7.150;2023-08-21T13:55:12;4.80;;;2.38;;
20832;SDS011;56075;51.264;7.150;2023-08-21T13:57:44;10.10;;;2.50;;
20832;SDS011;56075;51.264;7.150;2023-08-21T14:00:15;7.38;;;2.80;;
20832;SDS011;56075;51.264;7.150;2023-08-21T14:02:48;7.72;;;2.58;;
20832;SDS011;56075;51.264;7.150;2023-08-21T14:05:19;6.07;;;2.30;;
20832;SDS011;56075;51.264;7.150;2023-08-21T14:07:50;7.90;;;2.70;;
20832;SDS011;56075;51.264;7.150;2023-08-21T14:10:21;6.10;;;2.45;;
20832;SDS011;56075;51.264;7.150;2023-08-21T14:12:52;5.18;;;2.30;;
20832;SDS011;56075;51.264;7.150;2023-08-21T14:15:23;10.88;;;2.70;;
20832;SDS011;56075;51.264;7.150;2023-08-21T14:17:54;5.80;;;2.20;;
20832;SDS011;56075;51.264;7.150;2023-08-21T14:20:26;8.27;;;2.20;;
20832;SDS011;56075;51.264;7.150;2023-08-21T14:22:57;8.18;;;2.22;;
20832;SDS011;56075;51.264;7.150;2023-08-21T14:25:29;4.35;;;2.08;;
20832;SDS011;56075;51.264;7.150;2023-08-21T14:28:00;6.25;;;2.00;;
20832;SDS011;56075;51.264;7.150;2023-08-21T14:30:31;8.73;;;2.60;;
20832;SDS011;56075;51.264;7.150;2023-08-21T14:33:02;5.40;;;2.35;;
20832;SDS011;56075;51.264;7.150;2023-08-21T14:35:33;5.65;;;2.13;;
20832;SDS011;56075;51.264;7.150;2023-08-21T14:38:05;6.90;;;2.20;;
20832;SDS011;56075;51.264;7.150;2023-08-21T14:40:36;7.80;;;1.95;;
20832;SDS011;56075;51.264;7.150;2023-08-21T14:43:07;6.88;;;2.40;;
20832;SDS011;56075;51.264;7.150;2023-08-21T14:45:39;6.93;;;2.25;;
20832;SDS011;56075;51.264;7.150;2023-08-21T14:48:10;5.03;;;2.20;;
20832;SDS011;56075;51.264;7.150;2023-08-21T14:50:41;7.50;;;2.53;;
20832;SDS011;56075;51.264;7.150;2023-08-21T14:53:12;8.23;;;2.38;;
20832;SDS011;56075;51.264;7.150;2023-08-21T14:55:44;7.00;;;2.65;;
20832;SDS011;56075;51.264;7.150;2023-08-21T14:58:15;4.15;;;2.10;;
20832;SDS011;56075;51.264;7.150;2023-08-21T15:00:46;7.55;;;1.98;;
20832;SDS011;56075;51.264;7.150;2023-08-21T15:03:18;5.03;;;2.00;;
20832;SDS011;56075;51.264;7.150;2023-08-21T15:05:49;5.13;;;2.22;;
20832;SDS011;56075;51.264;7.150;2023-08-21T15:08:21;5.95;;;2.28;;
20832;SDS011;56075;51.264;7.150;2023-08-21T15:10:52;7.18;;;2.20;;
20832;SDS011;56075;51.264;7.150;2023-08-21T15:13:23;5.05;;;2.30;;
20832;SDS011;56075;51.264;7.150;2023-08-21T15:15:54;8.38;;;2.55;;